createdAt,value
2023-01-02T01:15:40.166Z,58.22
2023-01-02T01:18:08.252Z,57.05
2023-01-02T01:20:39.764Z,64.20
2023-01-02T01:23:07.102Z,62.05
2023-01-02T01:25:37.283Z,62.25
2023-01-02T01:28:04.722Z,59.92
2023-01-02T01:30:32.128Z,62.67
2023-01-02T01:32:59.566Z,56.95
2023-01-02T01:35:27.200Z,63.15
2023-01-02T01:37:54.589Z,56.72
2023-01-02T01:40:22.866Z,55.42
2023-01-02T01:42:50.529Z,50.17
2023-01-02T01:45:18.834Z,53.42
2023-01-02T01:47:56.855Z,52.00
2023-01-02T01:50:30.233Z,49.97
2023-01-02T01:53:03.986Z,53.38
2023-01-02T01:55:34.185Z,64.45
2023-01-02T01:58:07.677Z,50.95
2023-01-02T02:00:35.938Z,56.78
2023-01-02T02:03:20.789Z,51.40
2023-01-02T02:05:49.375Z,52.38
2023-01-02T02:08:31.463Z,53.88
2023-01-02T02:10:59.671Z,53.53
2023-01-02T02:13:27.279Z,52.40
2023-01-02T02:16:01.109Z,49.83
2023-01-02T02:18:40.031Z,52.20
2023-01-02T02:21:23.402Z,53.33
2023-01-02T02:24:09.441Z,56.60
2023-01-02T02:27:11.021Z,53.15
2023-01-02T02:29:50.102Z,55.22
2023-01-02T02:32:46.747Z,57.38
2023-01-02T02:35:14.045Z,56.65
2023-01-02T02:38:06.049Z,56.80
2023-01-02T02:40:43.193Z,54.05
2023-01-02T02:43:15.166Z,61.40
2023-01-02T02:45:55.114Z,52.88
2023-01-02T02:48:29.729Z,51.95
2023-01-02T02:51:11.140Z,51.58
2023-01-02T02:53:44.010Z,54.53
2023-01-02T02:56:14.118Z,56.92
2023-01-02T02:58:43.802Z,57.92
2023-01-02T03:01:19.130Z,50.13
2023-01-02T03:03:47.061Z,54.95
2023-01-02T03:06:17.549Z,51.85
2023-01-02T03:08:54.489Z,52.97
2023-01-02T03:11:27.156Z,51.45
2023-01-02T03:14:07.013Z,51.72
2023-01-02T03:16:40.162Z,49.38
2023-01-02T03:19:20.365Z,48.15
2023-01-02T03:22:00.842Z,51.33
2023-01-02T03:24:29.085Z,45.58
2023-01-02T03:27:06.011Z,48.35
2023-01-02T03:29:42.670Z,50.42
2023-01-02T03:32:27.757Z,48.35
2023-01-02T03:34:55.987Z,47.08
2023-01-02T03:37:34.253Z,46.67
2023-01-02T03:40:11.682Z,49.78
2023-01-02T03:42:53.138Z,49.40
2023-01-02T03:45:31.556Z,48.78
2023-01-02T03:48:23.785Z,50.67
2023-01-02T03:53:21.687Z,48.75
2023-01-02T03:56:14.669Z,51.30
2023-01-02T03:58:57.663Z,57.95
2023-01-02T04:01:40.868Z,53.47
2023-01-02T04:04:16.185Z,55.50
2023-01-02T04:06:49.744Z,52.38
2023-01-02T04:09:24.212Z,56.53
2023-01-02T04:11:58.589Z,52.40
2023-01-02T04:14:33.235Z,52.67
2023-01-02T04:17:03.417Z,61.30
2023-01-02T04:19:50.144Z,61.20
2023-01-02T04:22:24.462Z,58.72
2023-01-02T04:24:58.115Z,56.33
2023-01-02T04:27:29.398Z,57.40
2023-01-02T04:29:56.865Z,57.78
2023-01-02T04:32:45.416Z,64.45
2023-01-02T04:35:19.052Z,55.08
2023-01-02T04:37:47.931Z,56.22
2023-01-02T04:40:30.593Z,57.30
2023-01-02T04:42:57.893Z,56.35
2023-01-02T04:45:25.203Z,54.80
2023-01-02T04:47:52.933Z,58.08
2023-01-02T04:50:20.366Z,54.35
2023-01-02T04:52:47.701Z,56.88
2023-01-02T04:55:15.629Z,54.58
2023-01-02T04:57:42.969Z,54.05
2023-01-02T05:00:11.457Z,50.15
2023-01-02T05:02:39.946Z,54.90
2023-01-02T05:05:09.004Z,50.78
2023-01-02T05:07:38.020Z,48.28
2023-01-02T05:10:08.732Z,56.20
2023-01-02T05:12:39.783Z,53.67
2023-01-02T05:15:09.163Z,51.03
2023-01-02T05:17:40.266Z,54.65
2023-01-02T05:20:10.673Z,50.83
2023-01-02T05:22:58.118Z,52.15
2023-01-02T05:25:26.534Z,48.80
2023-01-02T05:27:54.941Z,49.30
2023-01-02T05:30:23.313Z,53.42
2023-01-02T05:32:51.331Z,52.38
2023-01-02T05:35:18.860Z,52.95
2023-01-02T05:37:46.809Z,49.63
2023-01-02T05:40:14.159Z,49.33
2023-01-02T05:42:41.553Z,53.08
2023-01-02T05:45:09.219Z,56.17
2023-01-02T05:47:36.760Z,51.55
2023-01-02T05:50:05.253Z,50.53
2023-01-02T05:52:32.881Z,48.95
2023-01-02T05:55:00.312Z,48.45
2023-01-02T05:57:27.736Z,51.47
2023-01-02T05:59:55.020Z,54.38
2023-01-02T06:02:22.991Z,50.80
2023-01-02T06:04:50.456Z,51.92
2023-01-02T06:07:18.959Z,47.95
2023-01-02T06:09:46.341Z,44.60
2023-01-02T06:12:13.639Z,49.83
2023-01-02T06:14:41.165Z,47.22
2023-01-02T06:17:08.617Z,42.35
2023-01-02T06:19:36.017Z,46.97
2023-01-02T06:22:03.511Z,53.40
2023-01-02T06:24:31.373Z,49.92
2023-01-02T06:26:58.810Z,50.38
2023-01-02T06:29:26.288Z,48.15
2023-01-02T06:31:53.711Z,52.75
2023-01-02T06:34:21.067Z,48.88
2023-01-02T06:36:49.017Z,51.25
2023-01-02T06:39:17.228Z,50.22
2023-01-02T06:41:44.505Z,48.33
2023-01-02T06:44:13.849Z,51.15
2023-01-02T06:46:41.283Z,47.15
2023-01-02T06:49:08.613Z,46.47
2023-01-02T06:51:35.981Z,47.63
2023-01-02T06:54:03.391Z,52.38
2023-01-02T06:56:30.727Z,46.40
2023-01-02T06:58:59.220Z,47.42
2023-01-02T07:01:27.370Z,48.33
2023-01-02T07:03:55.973Z,53.25
2023-01-02T07:06:23.947Z,51.88
2023-01-02T07:08:52.115Z,48.63
2023-01-02T07:11:22.412Z,49.83
2023-01-02T07:13:52.497Z,53.08
2023-01-02T07:16:22.385Z,56.45
2023-01-02T07:18:51.885Z,57.85
2023-01-02T07:21:19.907Z,80.45
2023-01-02T07:23:47.790Z,50.20
2023-01-02T07:26:15.470Z,62.75
2023-01-02T07:28:43.532Z,62.72
2023-01-02T07:31:14.080Z,59.92
2023-01-02T07:33:42.351Z,68.38
2023-01-02T07:36:16.036Z,57.85
2023-01-02T07:38:44.313Z,51.72
2023-01-02T07:41:16.513Z,52.45
2023-01-02T07:43:45.499Z,53.67
2023-01-02T07:46:14.962Z,59.22
2023-01-02T07:48:43.219Z,48.80
2023-01-02T07:51:11.496Z,51.88
2023-01-02T07:53:41.773Z,57.50
2023-01-02T07:56:09.847Z,60.25
2023-01-02T07:58:38.032Z,64.03
2023-01-02T08:01:08.522Z,74.07
2023-01-02T08:03:36.774Z,58.67
2023-01-02T08:06:06.616Z,67.28
2023-01-02T08:08:34.568Z,60.50
2023-01-02T08:11:13.953Z,109.45
2023-01-02T08:13:41.408Z,103.88
2023-01-02T08:16:16.415Z,121.18
2023-01-02T08:18:45.032Z,102.55
2023-01-02T08:21:13.749Z,111.57
2023-01-02T08:23:41.249Z,105.03
2023-01-02T08:26:10.800Z,109.65
2023-01-02T08:28:40.000Z,117.50
2023-01-02T08:31:16.010Z,127.75
2023-01-02T08:33:43.620Z,122.78
2023-01-02T08:36:11.876Z,123.72
2023-01-02T08:38:39.596Z,132.38
2023-01-02T08:41:07.485Z,123.60
2023-01-02T08:43:36.648Z,129.57
2023-01-02T08:46:06.321Z,124.60
2023-01-02T08:48:34.776Z,110.10
2023-01-02T08:51:02.761Z,112.82
2023-01-02T08:53:30.315Z,109.07
2023-01-02T08:56:17.326Z,110.80
2023-01-02T08:58:48.799Z,114.85
2023-01-02T09:01:20.040Z,122.25
2023-01-02T09:03:48.008Z,118.85
2023-01-02T09:06:21.550Z,123.00
2023-01-02T09:08:55.396Z,111.88
2023-01-02T09:11:26.416Z,113.65
2023-01-02T09:13:55.536Z,130.05
2023-01-02T09:16:23.840Z,125.53
2023-01-02T09:18:51.685Z,123.93
2023-01-02T09:21:19.706Z,115.10
2023-01-02T09:23:47.170Z,120.85
2023-01-02T09:26:14.659Z,112.15
2023-01-02T09:28:42.604Z,125.85
2023-01-02T09:31:15.060Z,115.53
2023-01-02T09:33:43.969Z,120.55
2023-01-02T09:36:13.703Z,124.35
2023-01-02T09:38:41.169Z,133.13
2023-01-02T09:41:27.016Z,118.47
2023-01-02T09:44:11.377Z,116.10
2023-01-02T09:47:11.764Z,132.63
2023-01-02T09:49:51.013Z,126.60
2023-01-02T09:52:23.307Z,129.27
2023-01-02T09:54:50.755Z,122.97
2023-01-02T09:57:27.606Z,139.07
2023-01-02T09:59:57.891Z,126.72
2023-01-02T10:02:49.364Z,134.93
2023-01-02T10:05:42.509Z,138.48
2023-01-02T10:08:18.263Z,132.75
2023-01-02T10:11:01.766Z,132.45
2023-01-02T10:14:17.568Z,130.90
2023-01-02T10:16:36.752Z,132.95
2023-01-02T10:19:13.143Z,155.63
2023-01-02T10:21:41.656Z,157.23
2023-01-02T10:24:17.945Z,142.30
2023-01-02T10:26:49.583Z,147.45
2023-01-02T10:29:47.879Z,141.90
2023-01-02T10:32:18.072Z,152.68
2023-01-02T10:34:56.149Z,152.07
2023-01-02T10:37:26.610Z,145.20
2023-01-02T10:39:54.169Z,128.40
2023-01-02T10:42:21.964Z,150.18
2023-01-02T10:44:49.852Z,152.52
2023-01-02T10:47:32.053Z,155.57
2023-01-02T10:50:01.098Z,157.60
2023-01-02T10:52:33.134Z,145.48
2023-01-02T10:55:01.669Z,131.15
2023-01-02T10:57:45.784Z,119.72
2023-01-02T11:00:31.097Z,112.93
2023-01-02T11:03:22.446Z,113.93
2023-01-02T11:05:52.737Z,105.13
2023-01-02T11:08:23.255Z,109.00
2023-01-02T11:10:51.729Z,105.60
2023-01-02T11:13:21.633Z,99.88
2023-01-02T11:15:56.040Z,110.75
2023-01-02T11:18:30.232Z,112.78
2023-01-02T11:21:04.365Z,110.82
2023-01-02T11:23:39.753Z,111.30
2023-01-02T11:26:19.447Z,113.72
2023-01-02T11:28:50.005Z,125.10
2023-01-02T11:31:18.973Z,121.03
2023-01-02T11:33:46.854Z,121.90
2023-01-02T11:36:17.269Z,119.03
2023-01-02T11:38:52.063Z,115.43
2023-01-02T11:41:19.469Z,103.22
2023-01-02T11:43:57.438Z,109.55
2023-01-02T11:46:29.642Z,108.20
2023-01-02T11:49:05.932Z,103.85
2023-01-02T11:51:36.864Z,104.50
2023-01-02T11:54:12.483Z,100.90
2023-01-02T11:56:43.588Z,120.82
2023-01-02T11:59:32.377Z,126.28
2023-01-02T12:02:11.327Z,118.57
2023-01-02T12:04:38.923Z,112.70
2023-01-02T12:07:45.521Z,110.65
2023-01-02T12:10:27.941Z,105.28
2023-01-02T12:13:13.377Z,105.43
2023-01-02T12:16:02.332Z,115.65
2023-01-02T12:18:47.576Z,111.45
2023-01-02T12:21:25.238Z,100.65
2023-01-02T12:24:17.070Z,96.35
2023-01-02T12:27:04.931Z,92.45
2023-01-02T12:29:46.754Z,98.50
2023-01-02T12:32:34.950Z,90.43
2023-01-02T12:35:30.513Z,95.50
2023-01-02T12:37:59.073Z,105.57
2023-01-02T12:40:56.217Z,111.43
2023-01-02T12:43:46.200Z,108.15
2023-01-02T12:46:42.321Z,101.35
2023-01-02T12:49:18.586Z,112.55
2023-01-02T12:51:49.253Z,121.07
2023-01-02T12:54:38.363Z,103.88
2023-01-02T12:57:22.618Z,110.35
2023-01-02T13:00:01.545Z,114.72
2023-01-02T13:03:00.593Z,110.45
2023-01-02T13:05:34.782Z,109.57
2023-01-02T13:08:17.547Z,117.90
2023-01-02T13:10:47.023Z,102.40
2023-01-02T13:13:16.304Z,103.03
2023-01-02T13:15:50.501Z,99.80
2023-01-02T13:18:27.717Z,104.63
2023-01-02T13:21:26.673Z,103.00
2023-01-02T13:23:57.859Z,105.20
2023-01-02T13:26:29.040Z,107.00
2023-01-02T13:28:56.590Z,108.35
2023-01-02T13:31:45.988Z,100.47
2023-01-02T13:34:31.241Z,96.90
2023-01-02T13:37:06.944Z,91.20
2023-01-02T13:39:47.246Z,91.10
2023-01-02T13:42:44.308Z,89.38
2023-01-02T13:45:20.233Z,78.97
2023-01-02T13:47:51.743Z,88.78
2023-01-02T13:50:38.209Z,74.88
2023-01-02T13:53:11.780Z,76.25
2023-01-02T13:55:39.704Z,70.55
2023-01-02T13:58:17.744Z,69.20
2023-01-02T14:00:54.850Z,69.18
2023-01-02T14:03:24.196Z,68.90
2023-01-02T14:05:58.373Z,67.80
2023-01-02T14:08:36.326Z,89.18
2023-01-02T14:11:09.507Z,74.93
2023-01-02T14:14:08.813Z,80.47
2023-01-02T14:16:48.326Z,75.30
2023-01-02T14:19:19.620Z,78.10
2023-01-02T14:21:52.472Z,84.35
2023-01-02T14:24:49.526Z,78.57
2023-01-02T14:27:33.673Z,78.57
2023-01-02T14:30:06.561Z,83.53
2023-01-02T14:32:40.324Z,84.93
2023-01-02T14:35:25.376Z,75.97
2023-01-02T14:38:12.044Z,76.30
2023-01-02T14:40:42.135Z,83.43
2023-01-02T14:43:31.622Z,89.70
2023-01-02T14:46:25.695Z,89.28
2023-01-02T14:49:00.120Z,119.47
2023-01-02T14:51:40.374Z,120.13
2023-01-02T14:54:23.586Z,118.72
2023-01-02T14:56:58.526Z,111.85
2023-01-02T14:59:30.392Z,107.05
2023-01-02T15:05:06.161Z,91.75
2023-01-02T15:07:44.089Z,93.22
2023-01-02T15:10:18.331Z,92.57
2023-01-02T15:13:03.574Z,114.03
2023-01-02T15:15:40.190Z,94.10
2023-01-02T15:18:20.381Z,88.63
2023-01-02T15:20:54.161Z,93.18
2023-01-02T15:23:24.203Z,93.75
2023-01-02T15:25:52.879Z,87.15
2023-01-02T15:28:40.209Z,96.22
2023-01-02T15:31:15.500Z,98.38
2023-01-02T15:33:43.352Z,96.50
2023-01-02T15:36:16.250Z,90.30
2023-01-02T15:38:44.906Z,85.45
2023-01-02T15:41:18.280Z,87.97
2023-01-02T15:44:05.970Z,90.90
2023-01-02T15:46:34.856Z,92.50
2023-01-02T15:49:04.071Z,88.43
2023-01-02T15:51:39.722Z,82.20
2023-01-02T15:54:14.204Z,87.88
2023-01-02T15:56:41.716Z,75.82
2023-01-02T15:59:33.406Z,87.93
2023-01-02T16:02:02.841Z,83.85
2023-01-02T16:04:33.202Z,79.13
2023-01-02T16:07:26.405Z,76.63
2023-01-02T16:09:56.286Z,73.18
2023-01-02T16:12:24.863Z,75.90
2023-01-02T16:14:56.982Z,76.05
2023-01-02T16:17:37.776Z,79.40
2023-01-02T16:20:15.926Z,73.47
2023-01-02T16:23:02.922Z,72.90
2023-01-02T16:25:36.106Z,66.90
2023-01-02T16:28:36.192Z,78.03
2023-01-02T16:31:15.043Z,85.18
2023-01-02T16:33:45.899Z,82.15
2023-01-02T16:36:13.201Z,86.63
2023-01-02T16:38:50.194Z,77.90
2023-01-02T16:41:44.909Z,88.05
2023-01-02T16:44:14.977Z,70.53
2023-01-02T16:46:45.048Z,73.03
2023-01-02T16:49:21.920Z,77.25
2023-01-02T16:51:54.783Z,77.45
2023-01-02T16:54:22.217Z,74.13
2023-01-02T16:56:50.544Z,84.45
2023-01-02T16:59:17.860Z,78.68
2023-01-02T17:01:45.241Z,85.30
2023-01-02T17:04:14.561Z,73.25
2023-01-02T17:06:42.434Z,90.95
2023-01-02T17:09:09.924Z,74.72
2023-01-02T17:11:38.132Z,72.55
2023-01-02T17:14:05.914Z,66.55
2023-01-02T17:16:33.283Z,72.07
2023-01-02T17:19:00.722Z,71.22
2023-01-02T17:21:32.730Z,66.80
2023-01-02T17:24:00.486Z,70.20
2023-01-02T17:26:28.030Z,59.90
2023-01-02T17:28:55.935Z,73.25
2023-01-02T17:31:26.048Z,64.75
2023-01-02T17:33:53.680Z,74.05
2023-01-02T17:36:21.313Z,69.07
2023-01-02T17:38:48.650Z,64.70
2023-01-02T17:41:16.098Z,75.00
2023-01-02T17:44:01.369Z,70.55
2023-01-02T17:47:04.334Z,63.45
2023-01-02T17:49:20.907Z,71.35
2023-01-02T17:51:48.391Z,70.72
2023-01-02T17:54:16.580Z,65.53
2023-01-02T17:56:44.273Z,64.75
2023-01-02T17:59:13.912Z,79.00
2023-01-02T18:01:41.314Z,118.60
2023-01-02T18:04:09.301Z,107.60
2023-01-02T18:06:36.895Z,74.70
2023-01-02T18:09:05.498Z,70.72
2023-01-02T18:11:34.617Z,78.60
2023-01-02T18:14:06.598Z,71.63
2023-01-02T18:16:39.352Z,69.82
2023-01-02T18:19:13.416Z,77.60
2023-01-02T18:21:41.014Z,80.47
2023-01-02T18:24:14.301Z,77.90
2023-01-02T18:26:42.461Z,70.20
2023-01-02T18:29:21.436Z,74.20
2023-01-02T18:31:51.297Z,69.22
2023-01-02T18:34:46.476Z,69.90
2023-01-02T18:37:26.331Z,73.57
2023-01-02T18:39:55.296Z,73.88
2023-01-02T18:42:28.785Z,71.43
2023-01-02T18:44:59.870Z,71.65
2023-01-02T18:47:34.349Z,70.93
2023-01-02T18:50:19.853Z,79.53
2023-01-02T18:52:51.767Z,72.20
2023-01-02T18:55:34.079Z,75.97
2023-01-02T18:58:20.565Z,75.22
2023-01-02T19:00:47.941Z,77.10
2023-01-02T19:03:27.092Z,75.03
2023-01-02T19:05:56.553Z,72.43
2023-01-02T19:08:31.001Z,69.35
2023-01-02T19:10:59.023Z,73.15
2023-01-02T19:13:34.752Z,66.88
2023-01-02T19:16:19.673Z,81.93
2023-01-02T19:18:48.793Z,73.35
2023-01-02T19:21:29.056Z,75.47
2023-01-02T19:24:05.547Z,77.82
2023-01-02T19:26:33.196Z,72.38
2023-01-02T19:29:11.622Z,64.22
2023-01-02T19:32:02.482Z,74.45
2023-01-02T19:34:52.599Z,75.60
2023-01-02T19:37:23.876Z,74.28
2023-01-02T19:39:53.619Z,78.78
2023-01-02T19:42:24.998Z,75.47
2023-01-02T19:44:54.291Z,80.93
2023-01-02T19:47:24.617Z,85.78
2023-01-02T19:49:52.352Z,83.57
2023-01-02T19:52:20.851Z,74.72
2023-01-02T19:54:49.221Z,77.20
2023-01-02T19:57:20.735Z,74.00
2023-01-02T20:02:20.163Z,78.47
2023-01-02T20:04:50.053Z,88.38
2023-01-02T20:07:18.132Z,82.28
2023-01-02T20:09:45.549Z,71.90
2023-01-02T20:12:33.705Z,71.05
2023-01-02T20:15:30.484Z,65.75
2023-01-02T20:18:08.256Z,74.93
2023-01-02T20:20:36.197Z,74.90
2023-01-02T20:23:03.604Z,69.00
2023-01-02T20:25:31.080Z,67.20
2023-01-02T20:27:59.903Z,64.78
2023-01-02T20:30:27.494Z,60.70
2023-01-02T20:32:55.076Z,69.70
2023-01-02T20:35:22.826Z,66.43
2023-01-02T20:37:50.185Z,106.78
2023-01-02T20:40:17.737Z,70.70
2023-01-02T20:42:45.174Z,64.82
2023-01-02T20:45:13.202Z,82.65
2023-01-02T20:47:40.681Z,91.60
2023-01-02T20:50:09.267Z,74.40
2023-01-02T20:52:36.553Z,76.93
2023-01-02T20:55:04.181Z,69.57
2023-01-02T20:57:31.582Z,74.43
2023-01-02T20:59:59.759Z,75.55
2023-01-02T21:02:27.831Z,74.78
2023-01-02T21:04:55.645Z,68.22
2023-01-02T21:07:23.425Z,70.68
2023-01-02T21:09:57.587Z,66.72
2023-01-02T21:12:43.633Z,58.67
2023-01-02T21:15:34.929Z,64.43
2023-01-02T21:18:02.312Z,67.57
2023-01-02T21:20:29.709Z,59.50
2023-01-02T21:22:57.567Z,57.53
2023-01-02T21:25:25.401Z,104.93
2023-01-02T21:27:53.229Z,88.57
2023-01-02T21:30:21.699Z,61.85
2023-01-02T21:32:49.096Z,61.17
2023-01-02T21:35:16.549Z,58.92
2023-01-02T21:37:44.465Z,59.90
2023-01-02T21:40:12.215Z,71.30
2023-01-02T21:42:44.614Z,61.75
2023-01-02T21:45:13.219Z,65.65
2023-01-02T21:47:40.669Z,73.72
2023-01-02T21:50:08.596Z,63.28
2023-01-02T21:52:35.972Z,62.15
2023-01-02T21:55:04.381Z,61.78
2023-01-02T21:58:02.621Z,64.80
2023-01-02T22:00:25.905Z,65.30
2023-01-02T22:02:54.966Z,54.80
2023-01-02T22:05:23.626Z,52.35
2023-01-02T22:07:51.454Z,56.10
2023-01-02T22:10:19.033Z,50.65
2023-01-02T22:12:47.499Z,55.17
2023-01-02T22:15:15.267Z,48.17
